Time;durP1;ratioP1;P1;durP2;ratioP2;P2;SDS_P1;SDS_P2;PMS_P1;PMS_P2;Temp;Humidity;BMP_temperature;BMP_pressure;BME280_temperature;BME280_humidity;BME280_pressure;Samples;Min_cycle;Max_cycle;Signal;HPM_P1;HPM_P2
2021/08/31 00:01:26;;;;;;;8.13;7.40;;;;;;;15.86;100.00;98960.63;5012306;28;103274;-58
2021/08/31 00:03:55;;;;;;;8.07;7.27;;;;;;;15.94;100.00;98962.63;4989406;28;103441;-58
2021/08/31 00:06:23;;;;;;;8.80;7.95;;;;;;;15.91;100.00;98963.75;5010145;28;102698;-58
2021/08/31 00:08:50;;;;;;;13.88;12.52;;;;;;;15.76;100.00;98966.94;5011773;28;102738;-58
2021/08/31 00:11:19;;;;;;;9.03;8.23;;;;;;;15.88;100.00;98965.84;5005619;28;103389;-59
2021/08/31 00:13:47;;;;;;;11.27;9.80;;;;;;;15.94;100.00;98965.31;5008584;28;103242;-57
2021/08/31 00:16:16;;;;;;;8.32;7.55;;;;;;;15.98;100.00;98972.03;4993761;28;102725;-57
2021/08/31 00:18:44;;;;;;;9.00;8.15;;;;;;;15.89;100.00;98967.50;5008391;28;104047;-57
2021/08/31 00:21:13;;;;;;;9.70;8.70;;;;;;;15.97;100.00;98971.19;5009291;28;103358;-57
2021/08/31 00:23:41;;;;;;;8.57;7.70;;;;;;;16.00;100.00;98964.75;5007079;28;103462;-57
2021/08/31 00:26:09;;;;;;;9.73;8.73;;;;;;;15.96;100.00;98966.84;5012263;28;102910;-57
2021/08/31 00:28:37;;;;;;;10.45;9.45;;;;;;;15.90;100.00;98967.41;5008226;28;103056;-58
2021/08/31 00:31:05;;;;;;;12.52;11.32;;;;;;;15.91;100.00;98968.25;5006227;28;104114;-58
2021/08/31 00:33:34;;;;;;;9.63;8.83;;;;;;;15.93;100.00;98967.13;5011602;28;103261;-58
2021/08/31 00:36:04;;;;;;;12.07;10.88;;;;;;;15.87;100.00;98969.47;5012733;28;102621;-58
2021/08/31 00:38:32;;;;;;;10.00;9.03;;;;;;;15.95;100.00;98972.28;4990258;28;103006;-58
2021/08/31 00:41:00;;;;;;;8.07;7.37;;;;;;;15.99;100.00;98968.38;4994054;28;103283;-58
2021/08/31 00:43:28;;;;;;;8.88;8.00;;;;;;;15.96;100.00;98960.66;5000661;28;103199;-58
2021/08/31 00:45:57;;;;;;;7.57;6.88;;;;;;;15.96;100.00;98958.00;5008008;28;102931;-57
2021/08/31 00:48:25;;;;;;;9.80;8.90;;;;;;;15.95;100.00;98972.28;4991854;28;102981;-57
2021/08/31 00:50:54;;;;;;;11.60;10.50;;;;;;;15.92;100.00;98965.44;5010766;28;103372;-58
2021/08/31 00:53:22;;;;;;;12.70;11.45;;;;;;;15.90;100.00;98970.06;5005208;28;103229;-58
2021/08/31 00:55:50;;;;;;;13.95;12.35;;;;;;;15.89;100.00;98972.84;5006933;28;102598;-58
2021/08/31 00:58:19;;;;;;;14.80;12.82;;;;;;;15.87;100.00;98970.34;5004907;28;104023;-58
2021/08/31 01:00:47;;;;;;;12.13;10.93;;;;;;;15.89;100.00;98978.16;5005462;28;103322;-58
2021/08/31 01:03:15;;;;;;;12.82;11.52;;;;;;;15.89;100.00;98978.16;5001365;28;103251;-58
2021/08/31 01:05:43;;;;;;;10.52;9.52;;;;;;;15.90;100.00;98985.19;4995442;28;102746;-58
2021/08/31 01:08:13;;;;;;;14.93;13.43;;;;;;;15.74;100.00;98984.88;5011357;28;104070;-58
2021/08/31 01:10:41;;;;;;;13.85;12.45;;;;;;;15.78;100.00;98980.94;4990891;28;104088;-58
2021/08/31 01:13:09;;;;;;;19.17;16.02;;;;;;;15.66;100.00;98989.06;5007616;28;103279;-58
2021/08/31 01:15:38;;;;;;;15.80;13.05;;;;;;;15.77;100.00;98989.94;5013272;28;102671;-59
2021/08/31 01:18:15;;;;;;;15.30;13.45;;;;;;;15.75;100.00;98986.59;5008912;28;102855;-58
2021/08/31 01:20:43;;;;;;;16.30;14.50;;;;;;;15.77;100.00;98981.94;5010700;28;103368;-58
2021/08/31 01:23:13;;;;;;;13.85;12.45;;;;;;;15.76;100.00;98991.75;5004904;28;103212;-58
2021/08/31 01:25:44;;;;;;;13.68;12.35;;;;;;;15.76;100.00;98994.41;4989807;28;102819;-58
2021/08/31 01:28:16;;;;;;;16.40;14.70;;;;;;;15.76;100.00;98988.25;5013812;28;104104;-58
2021/08/31 01:30:46;;;;;;;17.58;15.18;;;;;;;15.69;100.00;98989.78;4993245;28;103328;-58
2021/08/31 01:33:14;;;;;;;16.95;15.20;;;;;;;15.58;100.00;98986.22;4993165;28;103264;-58
2021/08/31 01:35:42;;;;;;;15.30;12.88;;;;;;;15.66;100.00;98986.38;5014054;28;102664;-58
2021/08/31 01:38:11;;;;;;;11.40;10.40;;;;;;;15.57;100.00;98989.88;5009946;28;102655;-58
2021/08/31 01:40:39;;;;;;;17.10;15.38;;;;;;;15.65;100.00;98997.19;5013159;28;103292;-58
2021/08/31 01:43:08;;;;;;;14.38;12.98;;;;;;;15.71;100.00;98993.16;5008251;28;103348;-58
2021/08/31 01:45:44;;;;;;;15.73;13.05;;;;;;;15.73;100.00;98996.50;5013618;28;102682;-58
2021/08/31 01:48:12;;;;;;;12.07;10.83;;;;;;;15.73;100.00;98986.69;5009723;28;104078;-59
2021/08/31 01:50:40;;;;;;;16.60;14.90;;;;;;;15.72;100.00;98986.84;5010639;28;103090;-58
2021/08/31 01:53:08;;;;;;;12.13;10.93;;;;;;;15.73;100.00;98988.53;5013124;28;103249;-58
2021/08/31 01:55:36;;;;;;;13.03;11.43;;;;;;;15.68;100.00;98990.75;4997862;28;102684;-59
2021/08/31 01:58:05;;;;;;;10.77;9.67;;;;;;;15.70;100.00;98986.13;5010475;28;102710;-58
2021/08/31 02:00:34;;;;;;;13.17;11.90;;;;;;;15.71;100.00;98990.47;5016003;28;103322;-58
2021/08/31 02:03:03;;;;;;;11.37;10.33;;;;;;;15.70;100.00;98994.13;4999665;28;103486;-59
2021/08/31 02:05:32;;;;;;;10.43;9.50;;;;;;;15.69;100.00;98990.59;5013200;28;102745;-59
2021/08/31 02:08:00;;;;;;;9.67;8.77;;;;;;;15.70;100.00;98988.78;5011430;28;102759;-62
2021/08/31 02:10:28;;;;;;;10.25;9.35;;;;;;;15.71;100.00;98995.81;5009405;28;103424;-59
2021/08/31 02:12:56;;;;;;;16.60;14.77;;;;;;;15.60;100.00;99000.28;5007525;28;103187;-59
2021/08/31 02:15:24;;;;;;;11.43;10.33;;;;;;;15.63;100.00;98997.31;5010380;28;102703;-59
2021/08/31 02:17:54;;;;;;;10.73;9.70;;;;;;;15.65;100.00;99000.69;5011308;28;104558;-58
2021/08/31 02:20:22;;;;;;;9.63;8.73;;;;;;;15.63;100.00;99005.31;5011085;28;103307;-61
2021/08/31 02:22:50;;;;;;;12.10;11.00;;;;;;;15.60;100.00;99000.28;5008233;28;103284;-59
2021/08/31 02:25:18;;;;;;;10.77;9.77;;;;;;;15.61;100.00;99003.75;5008620;27;102732;-58
2021/08/31 02:27:46;;;;;;;10.20;9.30;;;;;;;15.63;100.00;99007.16;4990353;28;104113;-59
2021/08/31 02:30:15;;;;;;;16.17;13.90;;;;;;;15.61;100.00;99001.09;5012559;28;103357;-59
2021/08/31 02:32:45;;;;;;;10.27;9.27;;;;;;;15.59;100.00;99005.72;5010532;28;103253;-59
2021/08/31 02:35:16;;;;;;;9.95;8.95;;;;;;;15.56;100.00;98998.84;5012578;28;102693;-59
2021/08/31 02:37:45;;;;;;;16.95;15.25;;;;;;;15.52;100.00;99002.75;5011977;28;102756;-58
2021/08/31 02:40:14;;;;;;;18.87;16.33;;;;;;;15.44;100.00;99005.19;5009529;28;104172;-59
2021/08/31 02:42:41;;;;;;;18.60;16.70;;;;;;;15.43;100.00;99008.00;5006562;28;103222;-58
2021/08/31 02:45:11;;;;;;;17.73;16.00;;;;;;;15.40;100.00;99009.13;4986736;28;103218;-59
2021/08/31 02:47:40;;;;;;;12.53;11.40;;;;;;;15.41;100.00;99004.66;5012390;28;103973;-58
2021/08/31 02:50:09;;;;;;;13.03;11.83;;;;;;;15.42;100.00;99001.84;5012138;28;103269;-59
2021/08/31 02:52:38;;;;;;;11.23;10.13;;;;;;;15.43;100.00;98992.88;5007732;28;103230;-59
2021/08/31 02:55:07;;;;;;;11.70;10.50;;;;;;;15.43;100.00;99002.69;5007737;28;102690;-58
2021/08/31 02:57:35;;;;;;;18.80;16.60;;;;;;;15.42;100.00;99004.50;5010710;28;102765;-59
2021/08/31 03:00:04;;;;;;;13.43;12.23;;;;;;;15.42;100.00;99012.50;5009892;28;104314;-58
2021/08/31 03:02:34;;;;;;;11.57;10.40;;;;;;;15.45;100.00;99016.69;4993027;28;103262;-59
2021/08/31 03:05:02;;;;;;;14.77;12.97;;;;;;;15.45;100.00;99016.69;5011206;28;103156;-58
2021/08/31 03:07:30;;;;;;;15.00;13.50;;;;;;;15.46;100.00;99007.75;5009376;28;102862;-59
2021/08/31 03:10:00;;;;;;;16.90;14.63;;;;;;;15.45;100.00;99012.22;5010401;28;103669;-59
2021/08/31 03:12:28;;;;;;;13.17;11.93;;;;;;;15.45;100.00;99016.69;5007920;28;103206;-59
2021/08/31 03:14:56;;;;;;;14.53;13.00;;;;;;;15.45;100.00;99012.22;5011316;28;102704;-59
2021/08/31 03:17:24;;;;;;;13.80;12.33;;;;;;;15.39;100.00;99015.41;5008569;28;102689;-58
2021/08/31 03:19:52;;;;;;;10.27;9.27;;;;;;;15.41;100.00;99012.63;5008220;28;103411;-59
2021/08/31 03:22:20;;;;;;;12.83;11.20;;;;;;;15.42;100.00;99016.97;5009880;28;103210;-59
2021/08/31 03:24:48;;;;;;;12.03;10.87;;;;;;;15.46;100.00;99013.06;5011048;28;102670;-59
2021/08/31 03:27:17;;;;;;;10.43;9.43;;;;;;;15.51;100.00;99018.88;5008336;28;102789;-59
2021/08/31 03:29:46;;;;;;;10.73;9.63;;;;;;;15.49;100.00;99016.34;5007973;28;104077;-60
2021/08/31 03:32:13;;;;;;;15.80;14.17;;;;;;;15.50;100.00;99020.69;4990750;28;103239;-58
2021/08/31 03:34:41;;;;;;;19.13;16.87;;;;;;;15.44;100.00;99021.19;5009303;28;102867;-59
2021/08/31 03:37:10;;;;;;;17.47;15.63;;;;;;;15.46;100.00;99027.28;5011404;27;102760;-59
2021/08/31 03:39:38;;;;;;;16.30;14.60;;;;;;;15.48;100.00;99027.13;5013462;28;103373;-58
2021/08/31 03:42:06;;;;;;;15.30;13.70;;;;;;;15.47;100.00;99020.94;4990884;28;103275;-59
2021/08/31 03:44:36;;;;;;;13.83;12.43;;;;;;;15.45;100.00;99014.88;4992819;28;102726;-59
2021/08/31 03:47:04;;;;;;;16.70;15.07;;;;;;;15.45;100.00;99017.53;5008595;28;103667;-58
2021/08/31 03:49:33;;;;;;;14.32;11.50;;;;;;;15.46;100.00;99019.28;5009602;28;103384;-59
2021/08/31 03:52:01;;;;;;;12.43;11.30;;;;;;;15.45;100.00;99022.88;5010542;28;103222;-58
2021/08/31 03:54:29;;;;;;;12.48;11.05;;;;;;;15.46;100.00;99026.38;5007071;28;102729;-59
2021/08/31 03:56:57;;;;;;;12.20;11.10;;;;;;;15.46;100.00;99035.25;5012874;28;103707;-58
2021/08/31 03:59:25;;;;;;;15.77;14.07;;;;;;;15.42;100.00;99030.28;5009612;28;103291;-59
2021/08/31 04:01:54;;;;;;;22.27;19.67;;;;;;;15.20;100.00;99033.97;5010352;28;103204;-58
2021/08/31 04:04:22;;;;;;;17.33;15.50;;;;;;;15.15;100.00;99044.16;5004691;28;102646;-59
2021/08/31 04:06:50;;;;;;;18.87;16.87;;;;;;;15.22;100.00;99041.78;5009476;28;102874;-60
2021/08/31 04:09:18;;;;;;;16.30;14.67;;;;;;;15.28;100.00;99036.81;5009080;28;103899;-59
2021/08/31 04:11:46;;;;;;;16.40;14.80;;;;;;;15.27;100.00;99040.44;5008793;28;103010;-59
2021/08/31 04:14:14;;;;;;;18.30;16.57;;;;;;;15.34;100.00;99046.06;5007195;28;102743;-59
2021/08/31 04:16:43;;;;;;;13.37;11.37;;;;;;;15.33;100.00;99039.91;4988899;28;102745;-60
2021/08/31 04:19:12;;;;;;;11.27;10.17;;;;;;;15.35;100.00;99053.94;5004045;28;104466;-60
2021/08/31 04:21:40;;;;;;;19.55;17.63;;;;;;;15.25;100.00;99057.50;5007476;28;104126;-58
2021/08/31 04:24:09;;;;;;;17.33;13.77;;;;;;;15.31;100.00;99056.97;5009411;28;102841;-59
2021/08/31 04:26:37;;;;;;;15.53;14.03;;;;;;;15.31;100.00;99047.19;5011228;28;102914;-58
2021/08/31 04:29:05;;;;;;;14.03;12.73;;;;;;;15.27;100.00;99056.41;4983308;28;104237;-58
2021/08/31 04:31:33;;;;;;;22.13;18.87;;;;;;;15.18;100.00;99057.22;5008483;28;103253;-58
2021/08/31 04:34:01;;;;;;;14.53;13.03;;;;;;;15.24;100.00;99067.31;4995571;28;102883;-57
2021/08/31 04:36:30;;;;;;;17.77;15.93;;;;;;;15.32;100.00;99067.53;5013127;28;103988;-57
2021/08/31 04:38:59;;;;;;;12.90;11.60;;;;;;;15.26;100.00;99070.69;5007902;28;103801;-57
2021/08/31 04:41:27;;;;;;;19.30;16.43;;;;;;;15.13;100.00;99070.03;5008682;28;103211;-57
2021/08/31 04:43:55;;;;;;;17.83;16.13;;;;;;;15.07;100.00;99067.91;5008191;28;102784;-58
2021/08/31 04:46:23;;;;;;;15.43;13.27;;;;;;;15.17;100.00;99066.16;5008482;28;102695;-57
2021/08/31 04:48:51;;;;;;;16.00;14.33;;;;;;;15.16;100.00;99064.44;5006419;27;104024;-57
2021/08/31 04:51:19;;;;;;;18.23;16.33;;;;;;;15.13;100.00;99069.22;5011065;28;103363;-57
2021/08/31 04:53:48;;;;;;;19.73;17.13;;;;;;;15.05;100.00;99072.50;5012711;28;102817;-57
2021/08/31 04:56:16;;;;;;;17.93;16.03;;;;;;;15.20;100.00;99076.53;5010498;28;102968;-57
2021/08/31 04:58:44;;;;;;;21.57;19.33;;;;;;;15.12;100.00;99071.03;5010409;28;103293;-58
2021/08/31 05:01:12;;;;;;;20.77;18.57;;;;;;;15.10;100.00;99079.13;5010775;28;103329;-57
2021/08/31 05:03:42;;;;;;;16.03;14.53;;;;;;;15.12;100.00;99084.34;4993061;28;103061;-57
2021/08/31 05:06:10;;;;;;;12.87;11.60;;;;;;;15.26;100.00;99078.69;4999563;28;104695;-57
2021/08/31 05:08:39;;;;;;;15.83;13.97;;;;;;;15.35;100.00;99082.38;5002058;28;104012;-57
2021/08/31 05:11:08;;;;;;;11.73;10.63;;;;;;;15.41;100.00;99093.31;4998916;28;103285;-59
2021/08/31 05:13:40;;;;;;;10.50;9.50;;;;;;;15.48;100.00;99094.53;5002260;28;102630;-58
2021/08/31 05:16:08;;;;;;;11.17;10.03;;;;;;;15.50;100.00;99089.91;5000333;28;102675;-57
2021/08/31 05:18:37;;;;;;;16.07;13.23;;;;;;;15.53;100.00;99094.97;4997494;28;104082;-57
2021/08/31 05:21:05;;;;;;;13.37;12.07;;;;;;;15.56;100.00;99088.53;4993519;28;104192;-58
2021/08/31 05:23:34;;;;;;;13.77;12.37;;;;;;;15.59;100.00;99098.94;4999552;28;102726;-58
2021/08/31 05:26:02;;;;;;;13.07;11.87;;;;;;;15.57;100.00;99101.75;5000431;28;102702;-57
2021/08/31 05:28:32;;;;;;;14.03;12.73;;;;;;;15.56;100.00;99102.69;4996443;28;103306;-58
2021/08/31 05:31:00;;;;;;;11.10;10.03;;;;;;;15.66;100.00;99097.44;4995203;28;103198;-58
2021/08/31 05:33:28;;;;;;;15.97;14.27;;;;;;;15.65;100.00;99104.56;4999830;28;102794;-59
2021/08/31 05:35:56;;;;;;;17.03;15.40;;;;;;;15.51;100.00;99118.25;4994897;28;102860;-58
2021/08/31 05:38:24;;;;;;;17.50;15.70;;;;;;;15.40;100.00;99120.94;5000001;28;103312;-58
2021/08/31 05:40:52;;;;;;;19.70;17.00;;;;;;;15.31;100.00;99121.72;4996627;28;103137;-57
2021/08/31 05:43:20;;;;;;;17.63;15.40;;;;;;;15.48;100.00;99123.81;4996869;28;103061;-66
2021/08/31 05:45:50;;;;;;;19.83;15.87;;;;;;;15.59;100.00;99125.56;5001064;28;103097;-66
2021/08/31 05:48:19;;;;;;;15.43;13.90;;;;;;;15.53;100.00;99126.94;4999599;28;103317;-66
2021/08/31 05:50:47;;;;;;;20.83;18.50;;;;;;;15.54;100.00;99133.94;4996486;28;103325;-66
2021/08/31 05:53:15;;;;;;;18.90;16.97;;;;;;;15.51;100.00;99133.38;4998630;28;102642;-66
2021/08/31 05:55:43;;;;;;;17.30;15.50;;;;;;;15.47;100.00;99132.78;4999677;28;102636;-66
2021/08/31 05:58:11;;;;;;;14.93;13.37;;;;;;;15.49;100.00;99130.84;4997409;28;104283;-67
2021/08/31 06:00:40;;;;;;;17.50;15.80;;;;;;;15.55;100.00;99132.97;4979009;28;103222;-67
2021/08/31 06:03:09;;;;;;;17.57;15.77;;;;;;;15.36;100.00;99135.47;5000443;28;104673;-67
2021/08/31 06:05:38;;;;;;;16.93;15.23;;;;;;;15.46;100.00;99130.22;5008725;28;104451;-66
2021/08/31 06:08:06;;;;;;;14.53;13.13;;;;;;;15.47;100.00;99137.25;5011023;28;103352;-68
2021/08/31 06:10:35;;;;;;;12.73;11.40;;;;;;;15.51;100.00;99134.22;5010928;28;103041;-67
2021/08/31 06:13:03;;;;;;;15.30;13.37;;;;;;;15.51;100.00;99144.00;4996700;28;102639;-58
2021/08/31 06:15:31;;;;;;;13.20;11.93;;;;;;;15.48;100.00;99145.13;5012051;28;104132;-67
2021/08/31 06:17:59;;;;;;;12.07;10.97;;;;;;;15.65;100.00;99141.00;5008575;28;103849;-67
2021/08/31 06:20:33;;;;;;;12.97;11.70;;;;;;;15.48;100.00;99141.63;5013910;28;103229;-67
2021/08/31 06:23:01;;;;;;;13.33;11.93;;;;;;;15.54;100.00;99147.28;5013842;28;102726;-67
2021/08/31 06:25:29;;;;;;;9.13;8.30;;;;;;;15.84;100.00;99135.78;4996372;28;102890;-67
2021/08/31 06:27:57;;;;;;;12.13;11.03;;;;;;;15.77;100.00;99144.44;5007003;28;103306;-67
2021/08/31 06:30:26;;;;;;;12.57;11.27;;;;;;;15.66;100.00;99148.84;5008034;28;103221;-67
2021/08/31 06:32:54;;;;;;;10.63;9.60;;;;;;;15.69;100.00;99144.25;5012728;28;102893;-67
2021/08/31 06:35:22;;;;;;;14.03;10.73;;;;;;;15.57;100.00;99144.34;5013296;28;103036;-67
2021/08/31 06:37:52;;;;;;;12.33;10.83;;;;;;;15.84;100.00;99150.91;5011804;28;103955;-67
2021/08/31 06:40:20;;;;;;;12.63;11.43;;;;;;;15.76;100.00;99159.56;5008156;28;103173;-67
2021/08/31 06:42:48;;;;;;;12.73;11.43;;;;;;;15.53;100.00;99164.22;5009333;28;102809;-66
2021/08/31 06:45:16;;;;;;;11.57;10.47;;;;;;;15.71;100.00;99158.28;5013090;28;103175;-66
2021/08/31 06:47:44;;;;;;;12.23;11.00;;;;;;;15.91;100.00;99162.75;5014952;28;103402;-67
2021/08/31 06:50:16;;;;;;;11.80;10.63;;;;;;;15.74;100.00;99166.00;5007999;28;102990;-66
2021/08/31 06:52:44;;;;;;;10.17;8.90;;;;;;;15.87;100.00;99166.63;5008723;28;103079;-67
2021/08/31 06:55:15;;;;;;;10.87;9.87;;;;;;;15.96;100.00;99165.84;5008524;28;102858;-58
2021/08/31 06:57:43;;;;;;;10.50;9.40;;;;;;;15.74;100.00;99166.00;5003673;28;103297;-58
2021/08/31 07:00:12;;;;;;;10.60;9.53;;;;;;;15.63;100.00;99170.44;5011826;28;103576;-57
2021/08/31 07:02:41;;;;;;;11.67;9.70;;;;;;;15.76;100.00;99166.72;4987699;28;102689;-58
2021/08/31 07:05:11;;;;;;;9.43;8.63;;;;;;;15.77;100.00;99161.28;5010342;28;102890;-58
2021/08/31 07:07:39;;;;;;;10.83;9.57;;;;;;;15.75;100.00;99163.22;4974765;28;103191;-67
2021/08/31 07:10:09;;;;;;;10.30;9.23;;;;;;;15.66;100.00;99164.84;5002678;28;103197;-67
2021/08/31 07:12:38;;;;;;;9.93;9.03;;;;;;;15.74;100.00;99166.00;4994895;28;103842;-66
2021/08/31 07:15:08;;;;;;;9.33;8.43;;;;;;;15.78;100.00;99173.59;5009498;28;103789;-66
2021/08/31 07:17:37;;;;;;;9.40;8.50;;;;;;;15.96;100.00;99168.50;5007503;28;104537;-65
2021/08/31 07:20:07;;;;;;;9.77;8.88;;;;;;;16.07;100.00;99168.41;5010022;28;103120;-65
2021/08/31 07:22:36;;;;;;;9.93;8.93;;;;;;;16.18;99.79;99168.31;5008245;28;102634;-66
2021/08/31 07:25:04;;;;;;;10.02;9.00;;;;;;;16.15;99.62;99168.59;5010220;28;104363;-68
2021/08/31 07:27:33;;;;;;;8.80;7.90;;;;;;;16.29;100.00;99173.53;5008042;28;104098;-66
2021/08/31 07:30:03;;;;;;;9.30;8.40;;;;;;;16.31;98.76;99176.91;4986478;28;103459;-66
2021/08/31 07:32:31;;;;;;;8.90;8.00;;;;;;;16.38;99.21;99180.75;5002292;28;103021;-66
2021/08/31 07:35:00;;;;;;;9.57;8.27;;;;;;;16.20;98.96;99185.00;4981386;28;102787;-66
2021/08/31 07:37:28;;;;;;;11.57;9.20;;;;;;;16.01;99.81;99192.94;4993896;28;102953;-66
2021/08/31 07:39:57;;;;;;;8.98;8.07;;;;;;;16.39;100.00;99193.09;4988748;28;104596;-66
2021/08/31 07:42:25;;;;;;;8.52;7.65;;;;;;;16.50;98.62;99192.16;5004040;28;103103;-66
2021/08/31 07:44:53;;;;;;;9.80;8.90;;;;;;;16.16;97.82;99199.59;5006134;28;102720;-66
2021/08/31 07:47:22;;;;;;;9.45;8.65;;;;;;;16.32;98.68;99205.28;4997143;28;103933;-65
2021/08/31 07:50:02;;;;;;;9.55;8.00;;;;;;;16.40;99.03;99210.78;4983491;28;103321;-66
2021/08/31 07:52:30;;;;;;;9.15;8.35;;;;;;;16.31;96.56;99198.25;5010078;28;102903;-65
2021/08/31 07:54:58;;;;;;;8.70;7.82;;;;;;;16.55;96.47;99198.78;4999974;28;103177;-66
2021/08/31 07:57:28;;;;;;;10.95;8.50;;;;;;;16.60;96.03;99198.38;4979173;28;103179;-65
2021/08/31 07:59:56;;;;;;;10.50;9.40;;;;;;;16.46;96.52;99201.38;4986072;28;103243;-66
2021/08/31 08:02:26;;;;;;;10.07;8.10;;;;;;;16.66;95.92;99201.34;5007112;28;103065;-65
2021/08/31 08:04:59;;;;;;;9.18;8.20;;;;;;;16.55;96.60;99201.47;5006005;28;102721;-66
2021/08/31 08:07:28;;;;;;;8.93;8.05;;;;;;;16.29;96.21;99218.03;5004568;28;103354;-66
2021/08/31 08:09:56;;;;;;;8.60;7.70;;;;;;;16.60;97.58;99217.03;5006481;28;103879;-66
2021/08/31 08:12:25;;;;;;;9.23;8.43;;;;;;;16.59;97.34;99221.53;5008370;28;102832;-65
2021/08/31 08:14:55;;;;;;;10.40;7.80;;;;;;;16.35;96.62;99228.16;5002021;28;103839;-67
2021/08/31 08:17:25;;;;;;;8.35;7.65;;;;;;;16.59;96.23;99229.53;4990281;28;103291;-66
2021/08/31 08:19:53;;;;;;;8.45;7.63;;;;;;;16.52;94.66;99228.38;4976649;28;104066;-66
2021/08/31 08:22:22;;;;;;;9.65;8.75;;;;;;;16.52;96.13;99232.84;5001139;28;102707;-65
2021/08/31 08:24:50;;;;;;;9.75;7.85;;;;;;;16.63;96.71;99233.63;5012808;27;104003;-66
2021/08/31 08:27:19;;;;;;;8.50;7.68;;;;;;;16.88;93.96;99236.78;5002147;28;103264;-65
2021/08/31 08:29:47;;;;;;;9.95;7.95;;;;;;;16.65;95.66;99237.00;4999422;28;103587;-65
2021/08/31 08:32:15;;;;;;;7.38;6.70;;;;;;;16.80;95.31;99238.31;5012491;28;102602;-65
2021/08/31 08:34:45;;;;;;;9.40;8.60;;;;;;;16.61;95.09;99240.94;5009123;28;102708;-66
2021/08/31 08:37:13;;;;;;;10.90;8.57;;;;;;;16.83;93.05;99231.00;5012946;28;104008;-58
2021/08/31 08:39:41;;;;;;;10.13;8.07;;;;;;;16.78;93.86;99234.94;5009810;28;103284;-58
2021/08/31 08:42:12;;;;;;;9.25;8.35;;;;;;;16.96;94.16;99237.78;5011428;28;102638;-58
2021/08/31 08:44:40;;;;;;;8.25;7.47;;;;;;;17.31;92.96;99237.25;5008669;28;102699;-58
2021/08/31 08:47:09;;;;;;;8.35;7.63;;;;;;;17.38;92.66;99238.34;4979100;28;104034;-58
2021/08/31 08:49:37;;;;;;;9.00;7.97;;;;;;;16.66;92.87;99244.03;4993784;28;103212;-58
2021/08/31 08:52:08;;;;;;;9.27;8.38;;;;;;;16.64;93.00;99243.34;5013176;28;102568;-58
2021/08/31 08:54:36;;;;;;;8.30;7.60;;;;;;;17.19;92.74;99252.56;5012405;28;102921;-57
2021/08/31 08:57:04;;;;;;;9.50;8.20;;;;;;;17.27;90.16;99259.88;5010760;28;103350;-58
2021/08/31 08:59:33;;;;;;;8.38;7.57;;;;;;;17.10;90.85;99260.53;5008579;28;103714;-58
2021/08/31 09:02:01;;;;;;;7.38;6.68;;;;;;;17.45;89.14;99258.19;4994553;28;103036;-58
2021/08/31 09:04:47;;;;;;;7.85;7.10;;;;;;;17.53;90.34;99257.47;5000801;28;105128;-58
2021/08/31 09:07:21;;;;;;;6.20;5.68;;;;;;;17.77;88.28;99261.44;4998628;28;104104;-66
2021/08/31 09:09:51;;;;;;;7.55;6.75;;;;;;;17.92;86.73;99257.34;4998046;28;103320;-66
2021/08/31 09:12:30;;;;;;;8.10;7.30;;;;;;;17.32;87.96;99261.13;4998493;28;102647;-66
2021/08/31 09:15:22;;;;;;;7.70;6.80;;;;;;;17.24;88.56;99262.81;4988370;28;103424;-66
2021/08/31 09:18:11;;;;;;;7.82;7.03;;;;;;;17.62;86.19;99262.88;4995438;28;103949;-58
2021/08/31 09:20:44;;;;;;;7.47;6.72;;;;;;;17.66;85.38;99269.59;4981637;28;103256;-58
2021/08/31 09:23:19;;;;;;;9.32;6.90;;;;;;;18.16;82.89;99267.53;4997777;28;102695;-58
2021/08/31 09:25:50;;;;;;;7.53;6.80;;;;;;;18.45;84.61;99267.44;4989176;28;104874;-58
2021/08/31 09:28:21;;;;;;;11.32;7.05;;;;;;;18.35;83.91;99272.00;5001359;28;104134;-58
2021/08/31 09:31:06;;;;;;;7.10;6.40;;;;;;;17.70;84.51;99271.00;4997396;28;103305;-58
2021/08/31 09:33:36;;;;;;;8.75;6.57;;;;;;;17.53;86.68;99278.84;4999775;28;102793;-58
2021/08/31 09:36:10;;;;;;;8.13;6.32;;;;;;;17.27;87.59;99279.41;4999363;28;103977;-67
2021/08/31 09:38:42;;;;;;;7.55;6.72;;;;;;;17.22;88.38;99280.81;4996387;28;103018;-67
2021/08/31 09:41:11;;;;;;;7.35;6.65;;;;;;;17.41;89.49;99280.81;4999060;28;103353;-67
2021/08/31 09:43:50;;;;;;;8.15;6.85;;;;;;;17.37;88.49;99280.25;4999128;28;102802;-66
2021/08/31 09:46:19;;;;;;;9.15;5.97;;;;;;;18.36;86.01;99274.53;4998017;28;102600;-66
2021/08/31 09:48:47;;;;;;;7.15;6.13;;;;;;;17.88;84.86;99274.63;4999140;28;103824;-67
2021/08/31 09:51:16;;;;;;;7.53;6.82;;;;;;;17.79;85.73;99269.31;4996279;28;103221;-67
2021/08/31 09:53:46;;;;;;;6.78;6.13;;;;;;;17.71;85.61;99277.22;4999020;28;103207;-66
2021/08/31 09:56:15;;;;;;;6.70;6.10;;;;;;;17.57;84.33;99285.66;4998306;28;104059;-66
2021/08/31 09:58:44;;;;;;;6.95;6.25;;;;;;;17.71;83.63;99282.56;4997852;28;104174;-67
2021/08/31 10:01:13;;;;;;;6.75;6.15;;;;;;;17.72;87.39;99274.38;4987571;28;103248;-66
2021/08/31 10:03:43;;;;;;;6.45;5.80;;;;;;;17.96;86.36;99277.44;4994531;28;102677;-66
2021/08/31 10:06:13;;;;;;;6.68;6.07;;;;;;;17.82;84.56;99275.19;4996719;28;102914;-66
2021/08/31 10:08:42;;;;;;;6.60;5.88;;;;;;;17.80;85.95;99279.84;4995504;28;103383;-67
2021/08/31 10:11:14;;;;;;;6.70;6.10;;;;;;;17.99;83.79;99272.81;4994733;28;103346;-68
2021/08/31 10:13:43;;;;;;;7.82;5.55;;;;;;;17.84;84.34;99273.25;4996186;28;103031;-66
2021/08/31 10:16:11;;;;;;;6.70;5.32;;;;;;;17.70;84.73;99276.38;5000344;28;103104;-66
2021/08/31 10:18:39;;;;;;;8.40;5.82;;;;;;;17.83;82.72;99274.22;4992833;28;104074;-66
2021/08/31 10:21:11;;;;;;;7.10;6.40;;;;;;;17.63;82.79;99275.22;4985380;28;103847;-66
2021/08/31 10:23:44;;;;;;;5.97;5.47;;;;;;;17.97;84.68;99272.94;4997216;28;102643;-59
2021/08/31 10:26:30;;;;;;;6.82;6.10;;;;;;;18.05;83.23;99274.91;4993498;28;102722;-67
2021/08/31 10:29:25;;;;;;;6.72;6.07;;;;;;;18.06;82.67;99284.59;4996211;28;103313;-67
2021/08/31 10:31:56;;;;;;;6.15;5.43;;;;;;;18.06;83.50;99276.56;4995154;28;103193;-67
2021/08/31 10:34:42;;;;;;;9.73;6.00;;;;;;;18.49;82.53;99275.09;4994935;28;103104;-67
2021/08/31 10:37:14;;;;;;;6.88;5.55;;;;;;;18.65;81.85;99284.31;4987286;28;102788;-67
2021/08/31 10:39:48;;;;;;;6.93;6.25;;;;;;;18.29;82.37;99280.59;5004691;28;103326;-67
2021/08/31 10:42:41;;;;;;;9.27;6.72;;;;;;;18.45;83.46;99284.34;4998872;28;103288;-66
2021/08/31 10:45:28;;;;;;;6.68;5.97;;;;;;;18.72;83.80;99288.09;4996992;28;102807;-67
2021/08/31 10:47:58;;;;;;;6.65;5.53;;;;;;;18.81;81.46;99282.66;4999095;28;104229;-67
2021/08/31 10:50:27;;;;;;;7.40;6.65;;;;;;;18.87;81.44;99284.75;4998577;28;103733;-67
2021/08/31 10:53:05;;;;;;;5.75;5.25;;;;;;;19.33;80.68;99274.88;4989473;28;103435;-67
2021/08/31 10:55:40;;;;;;;7.63;6.82;;;;;;;19.00;81.31;99279.88;4987984;28;103011;-67
2021/08/31 10:58:37;;;;;;;6.85;6.35;;;;;;;19.58;77.35;99276.84;4999674;28;102967;-65
2021/08/31 11:01:15;;;;;;;7.90;6.63;;;;;;;19.59;79.75;99281.22;4999273;28;103093;-67
2021/08/31 11:03:44;;;;;;;7.38;6.70;;;;;;;18.61;79.15;99293.63;5000364;28;103225;-67
2021/08/31 11:06:27;;;;;;;6.63;5.38;;;;;;;18.99;78.75;99288.94;4999307;28;102855;-67
2021/08/31 11:09:24;;;;;;;6.45;5.95;;;;;;;19.35;77.35;99289.81;5008424;28;104091;-67
2021/08/31 11:12:08;;;;;;;7.35;6.65;;;;;;;19.35;76.15;99283.59;4962053;28;104179;-67
2021/08/31 11:14:45;;;;;;;6.82;6.18;;;;;;;19.40;77.71;99289.38;4997219;28;103338;-67
2021/08/31 11:17:36;;;;;;;7.03;6.38;;;;;;;19.83;76.22;99300.19;5010858;28;102617;-68
2021/08/31 11:20:29;;;;;;;6.05;5.45;;;;;;;18.89;76.04;99304.19;4998346;28;103029;-66
2021/08/31 11:23:06;;;;;;;6.03;5.45;;;;;;;19.22;74.49;99299.22;4970053;28;103291;-66
2021/08/31 11:25:37;;;;;;;7.13;5.57;;;;;;;19.18;78.05;99298.66;5006427;28;103244;-67